Terminal Aerodrome Forecast
Issued by NWS Twin Cities, MN

Home | Current Version | Previous Version | Graphics & Text | Print | Product List | Glossary Off
Versions: 1 2 3 4 5 6 7 8 9 10 11 12 13 14 15

000
FTUS43 KMPX 061139
TAFEAU
TAF
KEAU 061139Z 0612/0712 11010KT 3SM SHRA SCT008 OVC016
      TEMPO 0612/0614 VRB15G25KT 1SM TSRA BKN008CB
     FM061400 19010KT 4SM SHRA VCTS BKN006 OVC010CB
     FM061800 29012G18KT 6SM -SHRA BR VCTS SCT008 OVC015CB
     FM062300 35008KT P6SM SCT025 BKN080
     FM070400 35005KT P6SM SKC=

USA.gov is the U.S. government's official web portal to all federal, state and local government web resources and services.